Time;durP1;ratioP1;P1;durP2;ratioP2;P2;SDS_P1;SDS_P2;PMS_P1;PMS_P2;Temp;Humidity;BMP_temperature;BMP_pressure;BME280_temperature;BME280_humidity;BME280_pressure;Samples;Min_cycle;Max_cycle;Signal;HPM_P1;HPM_P2
2024/02/27 00:00:26;;;;;;;3.90;3.33;;;6.10;99.90;;;;;;5053498;28;20200;-80
2024/02/27 00:02:53;;;;;;;5.10;3.50;;;6.10;99.90;;;;;;5048733;28;20239;-82
2024/02/27 00:05:25;;;;;;;7.05;6.45;;;6.10;99.90;;;;;;5050233;28;20889;-79
2024/02/27 00:07:53;;;;;;;8.10;7.30;;;6.10;99.90;;;;;;5051193;28;20466;-81
2024/02/27 00:10:20;;;;;;;6.95;6.13;;;6.20;99.90;;;;;;5046387;28;20211;-81
2024/02/27 00:12:47;;;;;;;8.50;7.95;;;6.30;99.90;;;;;;5055921;28;20201;-81
2024/02/27 00:15:14;;;;;;;3.85;3.65;;;6.30;99.90;;;;;;5051233;28;20465;-81
2024/02/27 00:17:41;;;;;;;7.30;5.18;;;6.20;99.90;;;;;;5049511;28;20224;-80
2024/02/27 00:20:08;;;;;;;4.72;4.43;;;6.20;99.90;;;;;;5046534;28;20272;-80
2024/02/27 00:22:35;;;;;;;14.85;8.95;;;6.00;99.90;;;;;;5053498;28;20200;-80
2024/02/27 00:25:03;;;;;;;11.10;6.50;;;5.90;99.90;;;;;;5049205;28;20508;-80
2024/02/27 00:27:29;;;;;;;5.13;4.82;;;5.80;99.90;;;;;;5049823;28;20287;-80
2024/02/27 00:29:57;;;;;;;5.93;5.35;;;5.80;99.90;;;;;;5057141;28;20206;-80
2024/02/27 00:32:24;;;;;;;7.80;7.20;;;5.50;99.90;;;;;;5059146;28;20216;-80
2024/02/27 00:34:51;;;;;;;16.33;5.85;;;5.70;99.90;;;;;;5043932;28;20481;-78
2024/02/27 00:37:18;;;;;;;10.18;4.85;;;5.50;99.90;;;;;;5046333;28;20498;-81
2024/02/27 00:39:45;;;;;;;3.63;3.33;;;5.40;99.90;;;;;;5062352;28;20386;-81
2024/02/27 00:42:12;;;;;;;14.70;7.97;;;5.60;99.90;;;;;;5058632;28;20215;-79
2024/02/27 00:44:40;;;;;;;27.80;10.63;;;5.50;99.90;;;;;;5047573;28;20281;-79
2024/02/27 00:47:07;;;;;;;19.40;13.68;;;5.60;99.90;;;;;;5051271;28;20232;-80
2024/02/27 00:49:35;;;;;;;10.98;9.88;;;5.30;99.90;;;;;;5059801;28;20196;-81
2024/02/27 00:52:03;;;;;;;18.60;13.88;;;5.30;99.90;;;;;;5045044;28;20208;-80
2024/02/27 00:54:32;;;;;;;7.38;6.82;;;5.40;99.90;;;;;;5045428;28;20212;-79
2024/02/27 00:56:59;;;;;;;12.32;11.13;;;5.20;99.90;;;;;;5045787;28;20228;-80
2024/02/27 00:59:30;;;;;;;21.33;10.07;;;5.20;99.90;;;;;;5050466;28;20440;-81
2024/02/27 01:01:57;;;;;;;7.57;7.13;;;5.10;99.90;;;;;;5053412;28;20232;-80
2024/02/27 01:04:24;;;;;;;12.65;11.40;;;5.10;99.90;;;;;;5039719;28;20218;-81
2024/02/27 01:06:51;;;;;;;7.63;5.32;;;5.20;99.90;;;;;;5047700;28;20277;-80
2024/02/27 01:09:21;;;;;;;5.85;4.43;;;5.20;99.90;;;;;;5053501;28;20201;-80
2024/02/27 01:11:48;;;;;;;9.82;9.02;;;5.10;99.90;;;;;;5064552;28;20203;-79
2024/02/27 01:14:15;;;;;;;11.63;7.93;;;5.10;99.90;;;;;;5067011;28;20200;-79
2024/02/27 01:16:44;;;;;;;17.08;10.55;;;5.10;99.90;;;;;;5050021;28;20279;-79
2024/02/27 01:19:11;;;;;;;9.27;8.50;;;5.00;99.90;;;;;;5047403;28;20231;-79
2024/02/27 01:21:42;;;;;;;11.35;9.02;;;4.90;99.90;;;;;;5046816;28;20214;-81
2024/02/27 01:24:09;;;;;;;7.22;6.75;;;4.90;99.90;;;;;;5038900;28;20728;-81
2024/02/27 01:26:38;;;;;;;6.35;5.93;;;4.80;99.90;;;;;;5051275;28;20224;-81
2024/02/27 01:29:05;;;;;;;14.77;11.60;;;4.80;99.90;;;;;;5048292;28;20213;-81
2024/02/27 01:31:34;;;;;;;6.70;6.13;;;4.70;99.90;;;;;;5049085;28;20468;-80
2024/02/27 01:34:03;;;;;;;5.68;5.32;;;4.70;99.90;;;;;;5054514;28;20214;-81
2024/02/27 01:36:33;;;;;;;47.13;13.05;;;4.70;99.90;;;;;;5057193;28;20212;-81
2024/02/27 01:39:08;;;;;;;8.27;6.18;;;4.80;99.90;;;;;;5054079;28;20205;-81
2024/02/27 01:41:43;;;;;;;10.05;9.13;;;4.70;99.90;;;;;;5049161;28;20214;-78
2024/02/27 01:44:10;;;;;;;3.53;3.40;;;4.70;99.90;;;;;;5052785;28;20448;-80
2024/02/27 01:46:37;;;;;;;10.68;8.52;;;4.70;99.90;;;;;;5069291;28;20208;-80
2024/02/27 01:49:05;;;;;;;11.65;6.88;;;4.50;99.90;;;;;;5070470;28;20208;-80
2024/02/27 01:51:32;;;;;;;4.13;3.83;;;4.40;99.90;;;;;;5066703;28;20196;-82
2024/02/27 01:54:01;;;;;;;9.38;6.72;;;4.50;99.90;;;;;;5055840;28;20286;-80
2024/02/27 01:56:28;;;;;;;9.95;9.20;;;4.40;99.90;;;;;;5027561;28;20263;-80
2024/02/27 01:58:56;;;;;;;6.63;6.13;;;4.40;99.90;;;;;;5053635;28;20239;-81
2024/02/27 02:01:28;;;;;;;3.85;3.70;;;4.80;99.90;;;;;;5048899;28;20455;-81
2024/02/27 02:03:56;;;;;;;8.77;8.07;;;4.50;99.90;;;;;;5040479;28;20222;-80
2024/02/27 02:06:24;;;;;;;19.35;8.68;;;4.40;99.90;;;;;;5047502;28;20299;-80
2024/02/27 02:08:53;;;;;;;10.30;9.50;;;4.30;99.90;;;;;;5054187;28;20208;-80
2024/02/27 02:11:21;;;;;;;8.00;7.55;;;4.30;99.90;;;;;;5054723;28;20215;-80
2024/02/27 02:13:49;;;;;;;5.70;5.20;;;4.10;99.90;;;;;;5046072;28;20243;-81
2024/02/27 02:16:16;;;;;;;7.95;7.45;;;4.00;99.90;;;;;;5048703;28;20208;-81
2024/02/27 02:18:43;;;;;;;6.28;5.88;;;4.10;99.90;;;;;;5050156;28;20258;-80
2024/02/27 02:21:10;;;;;;;7.05;6.18;;;4.10;99.90;;;;;;5053069;28;20204;-79
2024/02/27 02:23:37;;;;;;;10.77;9.15;;;4.20;99.90;;;;;;5055684;28;20204;-82
2024/02/27 02:26:04;;;;;;;4.75;4.45;;;4.30;99.90;;;;;;5041527;28;20482;-81
2024/02/27 02:28:32;;;;;;;5.78;4.38;;;4.20;99.90;;;;;;5051633;28;20294;-80
2024/02/27 02:30:59;;;;;;;9.02;8.45;;;4.20;99.90;;;;;;5049497;28;20211;-80
2024/02/27 02:33:27;;;;;;;6.40;5.90;;;4.40;99.90;;;;;;5056127;28;20285;-81
2024/02/27 02:35:54;;;;;;;10.20;7.75;;;4.30;99.90;;;;;;5047621;28;20242;-79
2024/02/27 02:38:21;;;;;;;9.13;7.80;;;4.00;99.90;;;;;;5043778;28;20439;-80
2024/02/27 02:40:49;;;;;;;7.88;7.28;;;3.90;99.90;;;;;;5050105;28;20263;-78
2024/02/27 02:43:15;;;;;;;6.35;5.75;;;3.90;99.90;;;;;;5044970;28;20219;-78
2024/02/27 02:45:42;;;;;;;9.02;7.60;;;3.70;99.90;;;;;;5049048;28;20275;-79
2024/02/27 02:48:10;;;;;;;9.15;4.90;;;3.70;99.90;;;;;;5040233;28;20513;-80
2024/02/27 02:50:37;;;;;;;7.07;6.43;;;3.60;99.90;;;;;;5057728;28;20630;-79
2024/02/27 02:53:04;;;;;;;7.32;5.47;;;3.60;99.90;;;;;;5041794;28;20228;-79
2024/02/27 02:55:31;;;;;;;8.63;6.35;;;3.60;99.90;;;;;;5047086;28;20240;-79
2024/02/27 02:57:58;;;;;;;4.82;4.50;;;3.70;99.90;;;;;;5047488;28;20271;-79
2024/02/27 03:00:26;;;;;;;11.57;6.85;;;3.70;99.90;;;;;;5038883;28;20208;-81
2024/02/27 03:02:53;;;;;;;11.85;6.07;;;3.60;99.90;;;;;;5052933;28;20226;-79
2024/02/27 03:05:20;;;;;;;6.72;6.20;;;3.60;99.90;;;;;;5042084;28;20208;-80
2024/02/27 03:07:47;;;;;;;5.10;4.72;;;3.50;99.90;;;;;;5044791;28;20556;-79
2024/02/27 03:10:14;;;;;;;7.75;7.05;;;3.40;99.90;;;;;;5040656;28;20488;-81
2024/02/27 03:12:43;;;;;;;4.78;4.53;;;3.60;99.90;;;;;;5044048;28;20208;-80
2024/02/27 03:15:11;;;;;;;3.70;3.47;;;3.50;99.90;;;;;;5041970;28;20224;-80
2024/02/27 03:17:38;;;;;;;11.57;7.55;;;3.40;99.90;;;;;;5037859;28;20242;-80
2024/02/27 03:20:09;;;;;;;7.68;6.03;;;3.40;99.90;;;;;;5041271;28;20212;-80
2024/02/27 03:22:36;;;;;;;14.93;7.30;;;3.30;99.90;;;;;;5023571;28;20262;-80
2024/02/27 03:25:07;;;;;;;14.35;8.98;;;3.40;99.90;;;;;;5037767;28;20211;-79
2024/02/27 03:27:34;;;;;;;9.52;8.18;;;3.40;99.90;;;;;;5026973;28;20208;-80
2024/02/27 03:30:01;;;;;;;6.05;5.43;;;3.30;99.90;;;;;;5038814;28;20208;-80
2024/02/27 03:32:29;;;;;;;4.35;4.07;;;3.30;99.90;;;;;;5038918;28;20275;-80
2024/02/27 03:34:56;;;;;;;10.38;7.05;;;3.20;99.90;;;;;;5038948;28;20479;-80
2024/02/27 03:37:24;;;;;;;5.90;5.60;;;3.20;99.90;;;;;;5039138;28;20235;-79
2024/02/27 03:39:51;;;;;;;7.40;4.75;;;3.30;99.90;;;;;;5040441;28;20204;-80
2024/02/27 03:42:18;;;;;;;11.23;7.70;;;3.40;99.90;;;;;;5044686;28;20204;-81
2024/02/27 03:44:46;;;;;;;5.10;4.70;;;3.40;99.90;;;;;;5046293;28;20268;-80
2024/02/27 03:47:16;;;;;;;12.35;7.07;;;3.40;99.90;;;;;;5042388;28;20220;-79
2024/02/27 03:49:43;;;;;;;2.80;2.70;;;3.30;99.90;;;;;;5037042;28;20213;-81
2024/02/27 03:52:11;;;;;;;7.88;4.90;;;3.30;99.90;;;;;;5044535;28;20207;-79
2024/02/27 03:54:38;;;;;;;9.25;8.30;;;3.30;99.90;;;;;;5038379;28;20220;-79
2024/02/27 03:57:06;;;;;;;8.88;6.50;;;3.20;99.90;;;;;;5045148;28;20270;-81
2024/02/27 03:59:33;;;;;;;2.85;2.75;;;3.20;99.90;;;;;;5040973;28;20204;-79
2024/02/27 04:02:00;;;;;;;5.28;3.08;;;3.20;99.90;;;;;;5050034;28;20203;-81
2024/02/27 04:04:27;;;;;;;5.10;4.78;;;3.10;99.90;;;;;;5043259;28;20212;-80
2024/02/27 04:06:54;;;;;;;8.13;7.03;;;3.10;99.90;;;;;;5050219;28;20195;-80
2024/02/27 04:09:22;;;;;;;9.60;6.35;;;2.90;99.90;;;;;;5041501;28;20212;-82
2024/02/27 04:11:49;;;;;;;6.20;5.75;;;2.90;99.90;;;;;;5035900;28;20227;-82
2024/02/27 04:14:16;;;;;;;7.88;6.63;;;2.90;99.90;;;;;;5041479;28;20400;-81
2024/02/27 04:16:43;;;;;;;3.72;3.53;;;3.00;99.90;;;;;;5037557;28;20239;-80
2024/02/27 04:19:10;;;;;;;8.00;6.95;;;3.00;99.90;;;;;;5045163;28;20397;-81
2024/02/27 04:21:37;;;;;;;7.65;7.25;;;3.00;99.90;;;;;;5039905;28;20301;-81
2024/02/27 04:24:05;;;;;;;4.78;4.38;;;3.00;99.90;;;;;;5049957;28;20195;-82
2024/02/27 04:26:32;;;;;;;10.15;5.65;;;2.90;99.90;;;;;;5030395;28;20212;-80
2024/02/27 04:28:58;;;;;;;6.00;5.60;;;2.90;99.90;;;;;;5043170;28;20302;-80
2024/02/27 04:31:25;;;;;;;10.82;8.70;;;2.90;99.90;;;;;;5046401;28;20203;-80
2024/02/27 04:33:53;;;;;;;11.40;5.75;;;2.90;99.90;;;;;;5039370;28;20204;-80
2024/02/27 04:36:20;;;;;;;11.27;6.38;;;2.70;99.90;;;;;;5052990;28;20235;-80
2024/02/27 04:38:48;;;;;;;7.35;6.13;;;2.70;99.90;;;;;;5053125;28;20212;-81
2024/02/27 04:41:15;;;;;;;7.00;5.30;;;2.80;99.90;;;;;;5052516;28;20218;-81
2024/02/27 04:43:42;;;;;;;7.90;7.22;;;2.80;99.90;;;;;;5042399;28;20275;-82
2024/02/27 04:46:09;;;;;;;6.85;6.53;;;2.70;99.90;;;;;;5057481;28;20205;-82
2024/02/27 04:48:37;;;;;;;5.47;4.97;;;2.90;99.90;;;;;;5049034;28;20224;-82
2024/02/27 04:51:07;;;;;;;7.05;6.55;;;2.90;99.90;;;;;;5051082;28;20189;-82
2024/02/27 04:53:35;;;;;;;5.60;5.18;;;2.80;99.90;;;;;;5045309;28;20196;-81
2024/02/27 04:56:03;;;;;;;3.10;3.00;;;2.80;99.90;;;;;;5030275;28;20231;-82
2024/02/27 04:58:30;;;;;;;8.02;7.25;;;2.80;99.90;;;;;;5032536;28;20225;-82
2024/02/27 05:00:57;;;;;;;5.55;5.00;;;2.70;99.90;;;;;;5044174;28;20196;-83
2024/02/27 05:03:24;;;;;;;11.07;8.50;;;2.70;99.90;;;;;;5035029;28;20393;-81
2024/02/27 05:05:52;;;;;;;5.05;4.45;;;2.70;99.90;;;;;;5043094;28;20204;-82
2024/02/27 05:08:19;;;;;;;8.57;7.78;;;3.00;99.90;;;;;;5041012;28;20221;-83
2024/02/27 05:10:46;;;;;;;6.57;5.63;;;2.80;99.90;;;;;;5039371;28;20526;-84
2024/02/27 05:13:13;;;;;;;8.23;6.72;;;2.70;99.90;;;;;;5052208;28;20254;-82
2024/02/27 05:15:40;;;;;;;7.20;6.50;;;2.70;99.90;;;;;;5038040;28;20787;-80
2024/02/27 05:18:12;;;;;;;9.13;6.68;;;2.80;99.90;;;;;;5051766;28;20227;-82
2024/02/27 05:21:00;;;;;;;6.20;5.60;;;2.80;99.90;;;;;;5033866;28;20182;-82
2024/02/27 05:23:48;;;;;;;4.05;3.42;;;2.80;99.90;;;;;;5048637;28;20223;-82
2024/02/27 05:26:50;;;;;;;10.35;9.45;;;2.80;99.90;;;;;;5003167;28;20208;-83
2024/02/27 05:29:32;;;;;;;7.93;7.28;;;2.70;99.90;;;;;;5044104;28;20239;-82
2024/02/27 05:32:00;;;;;;;11.45;10.52;;;2.70;99.90;;;;;;5037491;28;20197;-81
2024/02/27 05:34:27;;;;;;;6.57;6.13;;;2.70;99.90;;;;;;5034905;28;20489;-80
2024/02/27 05:36:54;;;;;;;13.02;8.68;;;2.80;99.90;;;;;;5049003;28;20203;-80
2024/02/27 05:39:23;;;;;;;7.35;5.15;;;2.80;99.90;;;;;;5057680;28;20212;-82
2024/02/27 05:41:51;;;;;;;8.27;7.57;;;2.80;99.90;;;;;;5052640;28;20197;-80
2024/02/27 05:44:21;;;;;;;10.20;9.20;;;2.60;99.90;;;;;;5050482;28;20196;-81
2024/02/27 05:46:48;;;;;;;11.77;10.65;;;2.60;99.90;;;;;;5057725;28;20220;-81
2024/02/27 05:49:15;;;;;;;11.40;10.00;;;2.60;99.90;;;;;;5057468;28;20192;-85
2024/02/27 05:51:42;;;;;;;6.57;6.18;;;2.60;99.90;;;;;;5056131;28;20196;-81
2024/02/27 05:54:09;;;;;;;8.90;5.32;;;2.40;99.90;;;;;;5058694;28;20231;-82
2024/02/27 05:56:36;;;;;;;11.00;10.05;;;2.40;99.90;;;;;;5059089;28;20227;-83
2024/02/27 05:59:04;;;;;;;7.50;7.10;;;2.50;99.90;;;;;;5053919;28;20323;-79
2024/02/27 06:01:31;;;;;;;9.77;8.48;;;2.70;99.90;;;;;;5054380;28;20244;-81
2024/02/27 06:03:58;;;;;;;7.03;6.53;;;2.80;99.90;;;;;;5048063;28;20203;-80
2024/02/27 06:06:26;;;;;;;7.03;6.40;;;2.90;99.90;;;;;;5058637;28;20254;-81
2024/02/27 06:08:55;;;;;;;10.98;9.25;;;2.90;99.90;;;;;;5047839;28;20227;-82
2024/02/27 06:11:22;;;;;;;8.23;7.57;;;2.90;99.90;;;;;;5046503;28;20617;-82
2024/02/27 06:13:49;;;;;;;4.10;3.90;;;2.90;99.90;;;;;;5041315;28;20204;-81
2024/02/27 06:16:15;;;;;;;8.20;4.95;;;3.10;99.90;;;;;;5023342;28;20209;-80
2024/02/27 06:18:47;;;;;;;8.57;8.07;;;3.00;99.90;;;;;;5040110;28;20232;-81
2024/02/27 06:24:00;;;;;;;7.25;6.65;;;3.10;99.90;;;;;;5047650;28;20275;-82
2024/02/27 06:26:27;;;;;;;8.25;5.43;;;3.30;99.90;;;;;;5046017;28;20291;-82
2024/02/27 06:28:54;;;;;;;9.38;6.93;;;3.60;99.90;;;;;;5036318;28;20245;-81
2024/02/27 06:31:21;;;;;;;9.13;7.32;;;3.80;99.90;;;;;;5050851;28;20694;-81
2024/02/27 06:33:48;;;;;;;9.57;7.30;;;3.80;99.90;;;;;;5047976;28;20263;-79
2024/02/27 06:36:18;;;;;;;8.32;7.28;;;3.70;99.90;;;;;;5056896;28;20196;-82
2024/02/27 06:38:45;;;;;;;16.48;10.45;;;3.90;99.90;;;;;;5058838;28;20224;-80
2024/02/27 06:41:12;;;;;;;5.65;5.40;;;4.10;99.90;;;;;;5063249;28;20200;-80
2024/02/27 06:43:39;;;;;;;10.60;9.95;;;4.20;99.90;;;;;;5058599;28;20231;-81
2024/02/27 06:46:06;;;;;;;9.45;8.55;;;4.50;99.90;;;;;;5060989;28;20200;-83
2024/02/27 06:48:34;;;;;;;7.32;6.85;;;4.90;99.90;;;;;;5052169;28;20209;-80
2024/02/27 06:51:06;;;;;;;4.47;4.28;;;5.10;99.90;;;;;;5041274;28;20253;-82
2024/02/27 06:53:33;;;;;;;4.32;3.92;;;5.20;99.90;;;;;;5049587;28;20390;-82
2024/02/27 06:56:01;;;;;;;7.20;6.72;;;5.40;99.90;;;;;;5040624;28;20295;-80
2024/02/27 06:58:28;;;;;;;6.95;6.45;;;5.60;99.90;;;;;;5032089;28;20323;-82
2024/02/27 07:00:56;;;;;;;7.30;6.68;;;5.70;99.90;;;;;;5047449;28;20247;-80
2024/02/27 07:03:25;;;;;;;4.97;4.75;;;6.30;99.90;;;;;;5034723;28;20209;-80
2024/02/27 07:05:53;;;;;;;16.38;10.43;;;6.60;99.90;;;;;;5052586;28;20208;-81
2024/02/27 07:08:20;;;;;;;5.05;4.75;;;6.80;99.90;;;;;;5041182;28;20488;-80
2024/02/27 07:10:47;;;;;;;6.68;6.22;;;6.90;99.90;;;;;;5051922;28;20457;-79
2024/02/27 07:13:15;;;;;;;1.92;1.90;;;6.80;99.90;;;;;;5035518;28;20200;-81
2024/02/27 07:15:43;;;;;;;4.70;4.40;;;6.80;99.90;;;;;;5052018;28;20203;-81
2024/02/27 07:18:11;;;;;;;5.95;5.65;;;6.80;99.90;;;;;;5041138;28;20263;-82
2024/02/27 07:20:38;;;;;;;3.08;2.88;;;7.10;99.90;;;;;;5036151;28;20250;-82
2024/02/27 07:23:05;;;;;;;2.40;2.30;;;7.00;99.90;;;;;;5033411;28;20239;-81
2024/02/27 07:25:32;;;;;;;6.03;5.63;;;7.10;99.90;;;;;;5039915;28;20228;-80
2024/02/27 07:28:00;;;;;;;6.38;5.95;;;7.20;99.90;;;;;;5053211;28;20524;-81
2024/02/27 07:30:27;;;;;;;5.28;4.60;;;7.30;99.90;;;;;;5046932;28;20401;-80
2024/02/27 07:32:54;;;;;;;7.65;6.80;;;7.10;99.90;;;;;;5048385;28;20390;-81
2024/02/27 07:35:22;;;;;;;3.70;3.50;;;6.80;99.90;;;;;;5046374;28;20208;-80
2024/02/27 07:37:51;;;;;;;4.75;3.33;;;6.90;99.90;;;;;;5044429;28;20338;-79
2024/02/27 07:40:18;;;;;;;9.15;4.47;;;7.40;99.90;;;;;;5032211;28;20209;-79
2024/02/27 07:42:45;;;;;;;5.15;4.85;;;7.20;99.90;;;;;;5043115;28;20251;-79
2024/02/27 07:45:12;;;;;;;7.55;6.95;;;7.20;99.90;;;;;;5043247;28;20208;-78
2024/02/27 07:47:40;;;;;;;6.80;6.18;;;7.00;99.90;;;;;;5046177;28;20208;-80
2024/02/27 07:50:08;;;;;;;2.28;2.05;;;7.60;99.90;;;;;;5039821;28;20246;-82
2024/02/27 07:52:35;;;;;;;3.00;2.90;;;8.30;99.90;;;;;;5038150;28;20284;-81
2024/02/27 07:55:02;;;;;;;4.30;4.10;;;9.10;99.90;;;;;;5051298;28;20388;-81
2024/02/27 07:57:29;;;;;;;6.18;5.78;;;9.40;99.90;;;;;;5047075;28;20381;-82
2024/02/27 07:59:57;;;;;;;5.43;5.20;;;9.00;99.90;;;;;;5034494;28;20298;-81
2024/02/27 08:02:26;;;;;;;4.95;4.50;;;7.80;99.90;;;;;;5048056;28;20219;-81
2024/02/27 08:04:53;;;;;;;4.13;3.75;;;7.20;99.90;;;;;;5044583;28;20254;-81
2024/02/27 08:07:20;;;;;;;3.85;3.65;;;6.90;99.90;;;;;;5042263;28;20227;-79
2024/02/27 08:09:47;;;;;;;3.58;3.38;;;6.30;99.90;;;;;;5046894;28;20231;-81
2024/02/27 08:12:14;;;;;;;5.53;5.22;;;5.90;99.90;;;;;;5050515;28;20196;-81
2024/02/27 08:14:42;;;;;;;6.32;5.88;;;5.80;99.90;;;;;;5042052;28;20258;-80
2024/02/27 08:17:09;;;;;;;5.22;4.70;;;5.70;99.90;;;;;;5048056;28;20211;-82
2024/02/27 08:19:39;;;;;;;7.95;7.20;;;5.50;99.90;;;;;;5044422;28;20622;-80
2024/02/27 08:22:07;;;;;;;7.28;6.68;;;5.40;99.90;;;;;;5046680;28;20208;-82
2024/02/27 08:24:34;;;;;;;8.50;7.68;;;5.50;99.90;;;;;;5049469;28;20212;-83
2024/02/27 08:27:01;;;;;;;3.40;3.22;;;5.40;99.90;;;;;;5060080;28;20184;-81
2024/02/27 08:29:32;;;;;;;6.90;6.38;;;5.40;99.90;;;;;;5062616;28;20264;-82
2024/02/27 08:31:59;;;;;;;3.83;3.40;;;5.30;99.90;;;;;;5053168;28;20188;-84
2024/02/27 08:34:26;;;;;;;4.65;4.45;;;4.90;99.90;;;;;;5054652;28;20240;-81
2024/02/27 08:36:54;;;;;;;4.40;4.20;;;5.00;99.90;;;;;;5057982;28;20204;-80
2024/02/27 08:39:21;;;;;;;7.22;6.75;;;5.10;99.90;;;;;;5058109;28;20262;-83
2024/02/27 08:41:48;;;;;;;5.25;4.95;;;5.00;99.90;;;;;;5060764;28;20200;-82
2024/02/27 08:44:15;;;;;;;5.68;5.28;;;5.10;99.90;;;;;;5051869;28;20269;-82
2024/02/27 08:46:43;;;;;;;7.35;6.97;;;5.10;99.90;;;;;;5046490;28;20206;-80
2024/02/27 08:49:11;;;;;;;8.57;8.00;;;4.90;99.90;;;;;;5040199;28;20378;-79
2024/02/27 08:51:38;;;;;;;4.32;4.13;;;5.00;99.90;;;;;;5048431;28;20297;-80
2024/02/27 08:54:07;;;;;;;10.38;6.65;;;5.10;99.90;;;;;;5052409;28;20373;-81
2024/02/27 08:56:36;;;;;;;14.75;10.15;;;5.20;99.90;;;;;;5041067;28;20213;-80
2024/02/27 08:59:03;;;;;;;4.57;4.18;;;5.30;99.90;;;;;;5034914;28;20238;-81
2024/02/27 09:01:30;;;;;;;5.63;4.07;;;5.40;99.90;;;;;;5045584;28;20280;-80
2024/02/27 09:03:57;;;;;;;4.93;4.63;;;5.20;99.90;;;;;;5057438;28;20239;-81
2024/02/27 09:06:25;;;;;;;5.07;4.82;;;5.10;99.90;;;;;;5039927;28;20295;-79
2024/02/27 09:08:52;;;;;;;8.25;7.45;;;4.90;99.90;;;;;;5038086;28;20516;-80
2024/02/27 09:11:19;;;;;;;4.35;4.15;;;4.80;99.90;;;;;;5043912;28;20352;-80
2024/02/27 09:13:46;;;;;;;9.32;7.57;;;4.80;99.90;;;;;;5036391;28;20223;-80
2024/02/27 09:16:13;;;;;;;5.63;5.15;;;4.80;99.90;;;;;;5053380;28;20339;-78
2024/02/27 09:18:43;;;;;;;7.05;6.40;;;4.80;99.90;;;;;;5052021;28;20338;-82
2024/02/27 09:21:11;;;;;;;6.70;6.13;;;5.00;99.90;;;;;;5042515;28;20403;-80
2024/02/27 09:23:38;;;;;;;9.77;5.30;;;5.10;99.90;;;;;;5039439;28;20265;-80
2024/02/27 09:26:08;;;;;;;3.70;3.50;;;5.20;99.90;;;;;;5041461;28;20243;-80
2024/02/27 09:28:35;;;;;;;6.88;6.20;;;5.40;99.90;;;;;;5045305;28;20243;-80
2024/02/27 09:31:04;;;;;;;5.82;5.50;;;5.50;99.90;;;;;;5042857;28;20201;-80
2024/02/27 09:33:34;;;;;;;5.88;4.75;;;5.90;99.90;;;;;;5041163;28;20231;-80
2024/02/27 09:36:01;;;;;;;4.13;3.83;;;5.90;99.90;;;;;;5040861;28;20498;-82
2024/02/27 09:38:28;;;;;;;4.63;4.30;;;5.50;99.90;;;;;;5047059;28;20489;-81
2024/02/27 09:41:00;;;;;;;4.35;4.10;;;5.40;99.90;;;;;;5040008;28;20308;-80
2024/02/27 09:43:31;;;;;;;7.13;6.63;;;5.40;99.90;;;;;;5046569;28;20238;-81
2024/02/27 09:45:58;;;;;;;17.33;7.55;;;5.70;99.90;;;;;;5049440;28;20214;-80
2024/02/27 09:48:29;;;;;;;6.03;5.63;;;6.20;99.90;;;;;;5049428;28;20527;-79
2024/02/27 09:50:58;;;;;;;10.95;8.63;;;6.40;99.90;;;;;;5034330;28;20232;-81
2024/02/27 09:53:28;;;;;;;7.35;4.50;;;6.60;99.90;;;;;;5049821;28;20527;-83
2024/02/27 09:55:56;;;;;;;5.38;4.93;;;6.80;99.90;;;;;;5045836;28;20275;-80
2024/02/27 09:58:24;;;;;;;6.00;5.70;;;6.70;99.90;;;;;;5049090;28;20204;-81
2024/02/27 10:00:55;;;;;;;4.68;4.47;;;6.80;99.90;;;;;;5045591;28;20235;-82
2024/02/27 10:03:23;;;;;;;5.47;5.07;;;7.20;99.90;;;;;;5048461;28;20242;-82
2024/02/27 10:05:50;;;;;;;1.95;1.85;;;7.30;99.90;;;;;;5043176;28;20211;-81
2024/02/27 10:08:22;;;;;;;7.95;7.28;;;7.50;99.90;;;;;;5041150;28;20235;-82
2024/02/27 10:10:51;;;;;;;13.65;4.50;;;7.80;99.90;;;;;;5050175;28;20385;-82
2024/02/27 10:13:18;;;;;;;3.30;3.10;;;8.00;99.90;;;;;;5045509;28;20205;-80
2024/02/27 10:15:45;;;;;;;6.53;6.13;;;7.50;99.90;;;;;;5048512;28;20212;-80
2024/02/27 10:18:12;;;;;;;3.47;3.28;;;6.90;99.90;;;;;;5047231;28;20204;-82
2024/02/27 10:20:43;;;;;;;2.47;2.38;;;7.00;99.90;;;;;;5064189;28;20223;-82
2024/02/27 10:23:10;;;;;;;3.45;3.25;;;7.10;99.90;;;;;;5045749;28;20463;-82
2024/02/27 10:25:37;;;;;;;8.80;8.25;;;7.40;99.90;;;;;;5043609;28;20209;-82
2024/02/27 10:28:06;;;;;;;7.50;7.07;;;7.50;99.90;;;;;;5049381;28;20228;-81
2024/02/27 10:30:36;;;;;;;3.88;3.67;;;7.00;99.90;;;;;;5042759;28;20212;-81
2024/02/27 10:33:06;;;;;;;8.73;7.95;;;7.00;99.90;;;;;;5041505;28;20196;-81
2024/02/27 10:35:35;;;;;;;3.42;3.22;;;6.90;99.90;;;;;;5049652;28;20242;-78
2024/02/27 10:38:15;;;;;;;3.88;3.70;;;7.00;99.90;;;;;;5039351;28;20204;-82
2024/02/27 10:40:42;;;;;;;12.07;4.65;;;7.20;99.90;;;;;;5032982;28;20528;-81
2024/02/27 10:43:10;;;;;;;3.63;3.45;;;6.90;99.90;;;;;;5041380;28;20200;-80
2024/02/27 10:45:37;;;;;;;6.53;4.72;;;7.00;99.90;;;;;;5047813;28;20199;-80
2024/02/27 10:48:04;;;;;;;4.07;3.83;;;6.90;99.90;;;;;;5038897;28;20196;-82
2024/02/27 10:50:32;;;;;;;6.90;6.43;;;7.10;99.90;;;;;;5043215;28;20216;-81
2024/02/27 10:53:01;;;;;;;7.57;4.70;;;7.30;99.90;;;;;;5054254;28;20260;-81
2024/02/27 10:55:30;;;;;;;2.97;2.88;;;7.30;99.90;;;;;;5038710;28;20239;-81
2024/02/27 10:58:03;;;;;;;5.78;5.47;;;7.30;99.90;;;;;;5035945;28;20496;-81
2024/02/27 11:00:33;;;;;;;3.40;3.20;;;7.30;99.90;;;;;;5039979;28;20601;-83
2024/02/27 11:03:01;;;;;;;5.57;5.18;;;7.20;99.90;;;;;;5040134;28;20441;-83
2024/02/27 11:05:31;;;;;;;3.28;3.10;;;7.00;99.90;;;;;;5040257;28;20342;-81
2024/02/27 11:08:00;;;;;;;4.45;4.25;;;6.90;99.90;;;;;;5038934;28;20405;-82
2024/02/27 11:10:29;;;;;;;1.40;1.40;;;6.80;99.90;;;;;;5052859;28;20278;-80
2024/02/27 11:13:00;;;;;;;3.53;3.33;;;6.90;99.90;;;;;;5038586;28;20527;-82
2024/02/27 11:15:28;;;;;;;3.00;2.90;;;7.10;99.90;;;;;;5051177;28;20204;-80
2024/02/27 11:17:59;;;;;;;5.82;5.40;;;6.90;99.90;;;;;;5041498;28;20205;-82
2024/02/27 11:20:30;;;;;;;13.60;7.00;;;7.20;99.90;;;;;;5047054;28;20227;-81
2024/02/27 11:22:58;;;;;;;3.08;2.97;;;7.30;99.90;;;;;;5041989;28;20196;-81
2024/02/27 11:25:25;;;;;;;8.65;8.02;;;7.50;99.90;;;;;;5053496;28;20204;-78
2024/02/27 11:27:54;;;;;;;5.75;5.40;;;7.50;99.90;;;;;;5048654;28;20203;-82
2024/02/27 11:30:22;;;;;;;2.88;2.78;;;7.50;99.90;;;;;;5044116;28;20204;-79
2024/02/27 11:32:50;;;;;;;6.13;5.40;;;7.70;99.90;;;;;;5054028;28;20211;-82
2024/02/27 11:35:17;;;;;;;5.55;5.25;;;7.70;99.90;;;;;;5052618;28;20219;-82
2024/02/27 11:37:47;;;;;;;3.97;3.60;;;7.60;99.90;;;;;;5047979;28;20212;-80
2024/02/27 11:40:36;;;;;;;5.88;5.47;;;7.60;99.90;;;;;;5042057;28;20559;-80
2024/02/27 11:43:03;;;;;;;3.72;3.55;;;8.10;99.90;;;;;;5047054;28;20215;-80
2024/02/27 11:45:32;;;;;;;2.80;2.70;;;8.10;99.90;;;;;;5038326;28;20272;-80
2024/02/27 11:47:59;;;;;;;3.40;3.13;;;8.40;99.90;;;;;;5040312;28;20204;-82
2024/02/27 11:50:35;;;;;;;4.57;4.22;;;8.20;99.90;;;;;;5030359;28;20307;-80
2024/02/27 11:53:21;;;;;;;1.13;1.13;;;8.30;99.90;;;;;;5041234;28;20211;-81
2024/02/27 11:55:50;;;;;;;3.55;3.38;;;8.50;99.90;;;;;;5040784;28;20295;-81
2024/02/27 11:58:20;;;;;;;5.60;5.22;;;8.30;99.90;;;;;;5046702;28;20224;-82
2024/02/27 12:00:48;;;;;;;6.20;5.88;;;8.50;99.90;;;;;;5050174;28;20227;-82
2024/02/27 12:03:16;;;;;;;5.20;4.80;;;8.20;99.90;;;;;;5045671;28;20196;-82
2024/02/27 12:05:52;;;;;;;6.25;5.80;;;8.40;99.90;;;;;;5050848;28;20210;-80
2024/02/27 12:08:21;;;;;;;5.25;4.57;;;8.80;99.90;;;;;;5038442;28;20205;-83
2024/02/27 12:10:49;;;;;;;5.90;5.57;;;8.90;99.90;;;;;;5051765;28;20225;-80
2024/02/27 12:13:16;;;;;;;5.55;5.30;;;8.60;99.90;;;;;;5052116;28;20538;-81
2024/02/27 12:15:43;;;;;;;3.88;3.63;;;9.00;99.90;;;;;;5047819;28;20251;-79
2024/02/27 12:18:10;;;;;;;7.18;6.70;;;9.00;99.90;;;;;;5042370;28;20216;-80
2024/02/27 12:20:39;;;;;;;3.38;3.17;;;8.90;99.90;;;;;;5038273;28;20559;-81
2024/02/27 12:23:05;;;;;;;3.15;3.05;;;9.50;99.90;;;;;;5035720;28;20213;-81
2024/02/27 12:25:43;;;;;;;1.63;1.60;;;9.10;99.90;;;;;;5038520;28;20277;-80
2024/02/27 12:28:10;;;;;;;7.95;7.32;;;8.90;99.90;;;;;;5042143;28;20208;-80
2024/02/27 12:30:43;;;;;;;2.67;2.58;;;9.30;99.90;;;;;;5045302;28;20208;-80
2024/02/27 12:33:11;;;;;;;3.28;3.08;;;9.40;99.90;;;;;;5037358;28;20200;-80
2024/02/27 12:35:38;;;;;;;6.97;5.18;;;9.60;99.90;;;;;;5035056;28;20219;-80
2024/02/27 12:38:05;;;;;;;2.72;2.63;;;9.80;99.90;;;;;;5038720;28;20271;-80
2024/02/27 12:40:32;;;;;;;6.40;6.10;;;9.40;99.90;;;;;;5042183;28;20299;-79
2024/02/27 12:43:00;;;;;;;4.97;4.72;;;9.60;99.90;;;;;;5037424;28;20271;-81
2024/02/27 12:45:27;;;;;;;6.80;6.30;;;9.70;99.90;;;;;;5043446;28;20270;-81
2024/02/27 12:47:55;;;;;;;3.85;3.00;;;9.40;99.90;;;;;;5046564;28;20207;-79
2024/02/27 12:50:22;;;;;;;6.13;5.78;;;9.20;99.90;;;;;;5048044;28;20208;-81
2024/02/27 12:52:56;;;;;;;4.97;3.92;;;9.20;99.90;;;;;;5054183;28;20200;-80
2024/02/27 12:55:37;;;;;;;0.80;0.80;;;9.20;99.90;;;;;;5045754;28;20207;-79
2024/02/27 12:58:04;;;;;;;4.57;4.38;;;9.10;99.90;;;;;;5050101;28;20236;-79
2024/02/27 13:00:31;;;;;;;4.63;4.30;;;8.80;99.90;;;;;;5041502;28;20458;-80
2024/02/27 13:02:59;;;;;;;2.40;2.30;;;8.80;99.90;;;;;;5040274;28;20204;-81